createdAt,value
2023-05-05T00:06:33.462Z,42.5
2023-05-05T00:16:39.490Z,42.5
2023-05-05T00:26:45.559Z,42.5
2023-05-05T00:36:51.612Z,42.5
2023-05-05T00:46:57.681Z,42
2023-05-05T00:57:03.732Z,42
2023-05-05T01:07:09.796Z,42
2023-05-05T01:17:15.857Z,42
2023-05-05T01:27:21.920Z,42
2023-05-05T01:37:27.974Z,42
2023-05-05T01:47:34.016Z,41.5
2023-05-05T01:57:39.151Z,41.5
2023-05-05T02:07:45.149Z,41.5
2023-05-05T02:17:50.245Z,41.5
2023-05-05T02:27:55.327Z,41.5
2023-05-05T02:38:01.365Z,41.5
2023-05-05T02:48:07.468Z,41.5
2023-05-05T02:58:13.484Z,41
2023-05-05T03:08:19.552Z,41
2023-05-05T03:18:25.605Z,41
2023-05-05T03:28:31.666Z,41
2023-05-05T03:38:37.711Z,41
2023-05-05T03:48:43.778Z,41
2023-05-05T03:58:49.832Z,41
2023-05-05T04:08:55.902Z,41
2023-05-05T04:19:01.957Z,40.5
2023-05-05T04:29:08.002Z,40.5
2023-05-05T04:39:13.094Z,40.5
2023-05-05T04:49:19.157Z,40.5
2023-05-05T04:59:25.197Z,40.5
2023-05-05T05:09:31.273Z,41
2023-05-05T05:19:37.311Z,41
2023-05-05T05:29:43.384Z,41
2023-05-05T05:39:49.433Z,40.5
2023-05-05T05:49:54.505Z,40.5
2023-05-05T05:59:59.580Z,40
2023-05-05T06:10:04.668Z,39.5
2023-05-05T06:20:09.737Z,39.5
2023-05-05T06:30:15.802Z,41
2023-05-05T06:40:21.862Z,40.5
2023-05-05T06:50:27.911Z,40
2023-05-05T07:00:33.955Z,40
2023-05-05T07:10:40.044Z,40
2023-05-05T07:20:46.237Z,40
2023-05-05T07:30:52.313Z,40
2023-05-05T07:40:58.396Z,40
2023-05-05T07:51:04.366Z,40
2023-05-05T08:01:10.326Z,40
2023-05-05T08:11:16.378Z,40
2023-05-05T08:21:22.445Z,40
2023-05-05T08:31:27.514Z,40
2023-05-05T08:41:33.585Z,40
2023-05-05T08:51:39.633Z,40
2023-05-05T09:01:45.756Z,40.5
2023-05-05T09:11:51.753Z,40.5
2023-05-05T09:21:57.816Z,40.5
2023-05-05T09:32:03.867Z,40.5
2023-05-05T09:42:08.952Z,40.5
2023-05-05T09:52:14.026Z,40.5
2023-05-05T10:02:19.207Z,40.5
2023-05-05T10:12:24.340Z,40.5
2023-05-05T10:22:30.330Z,40.5
2023-05-05T10:32:36.301Z,40.5
2023-05-05T10:42:42.333Z,40.5
2023-05-05T10:52:48.424Z,40.5
2023-05-05T11:02:54.467Z,40.5
2023-05-05T11:13:00.690Z,40.5
2023-05-05T11:23:06.638Z,40.5
2023-05-05T11:33:12.678Z,40.5
2023-05-05T11:43:18.702Z,40.5
2023-05-05T11:53:24.754Z,40.5
2023-05-05T12:03:30.800Z,40.5
2023-05-05T12:13:36.979Z,40.5
2023-05-05T12:23:41.939Z,40.5
2023-05-05T12:33:47.994Z,40.5
2023-05-05T12:43:54.074Z,41
2023-05-05T12:54:00.113Z,40.5
2023-05-05T13:04:06.185Z,41
2023-05-05T13:14:12.264Z,41
2023-05-05T13:24:18.305Z,41
2023-05-05T13:34:23.380Z,41
2023-05-05T13:44:28.449Z,41
2023-05-05T13:54:34.566Z,41
2023-05-05T14:04:40.628Z,41
2023-05-05T14:14:46.626Z,41
2023-05-05T14:24:52.686Z,41
2023-05-05T14:34:58.744Z,41
2023-05-05T14:45:04.794Z,41
2023-05-05T14:55:10.852Z,41
2023-05-05T15:05:16.923Z,41
2023-05-05T15:15:22.995Z,40.5
2023-05-05T15:25:29.043Z,41
2023-05-05T15:35:35.138Z,41
2023-05-05T15:45:41.170Z,41
2023-05-05T15:55:46.223Z,41
2023-05-05T16:05:52.280Z,41
2023-05-05T16:15:58.356Z,41
2023-05-05T16:26:04.440Z,41
2023-05-05T16:36:10.458Z,41
2023-05-05T16:46:16.513Z,41
2023-05-05T16:56:22.586Z,41
2023-05-05T17:06:27.661Z,40.5
2023-05-05T17:16:32.738Z,41
2023-05-05T17:26:37.805Z,41
2023-05-05T17:36:42.873Z,41
2023-05-05T17:46:48.957Z,41
2023-05-05T17:56:54.998Z,41
2023-05-05T18:07:01.065Z,41
2023-05-05T18:17:07.128Z,41
2023-05-05T18:27:13.193Z,41
2023-05-05T18:37:19.254Z,41.5
2023-05-05T18:47:25.385Z,41.5
2023-05-05T18:57:31.372Z,41.5
2023-05-05T19:07:37.424Z,41.5
2023-05-05T19:17:43.624Z,42
2023-05-05T19:27:49.741Z,42
2023-05-05T19:37:55.660Z,42
2023-05-05T19:48:00.809Z,42
2023-05-05T19:58:06.911Z,42
2023-05-05T20:08:12.962Z,42
2023-05-05T20:18:18.981Z,42
2023-05-05T20:28:25.061Z,42.5
2023-05-05T20:38:30.968Z,42.5
2023-05-05T20:48:37.190Z,42.5
2023-05-05T20:58:42.441Z,43
2023-05-05T21:08:47.308Z,43
2023-05-05T21:18:53.594Z,43
2023-05-05T21:28:59.593Z,43
2023-05-05T21:39:05.486Z,43
2023-05-05T21:49:11.781Z,43
2023-05-05T21:59:17.772Z,43
2023-05-05T22:09:23.658Z,43
2023-05-05T22:19:29.719Z,43.5
2023-05-05T22:29:35.927Z,43.5
2023-05-05T22:39:41.957Z,43.5
2023-05-05T22:49:48.003Z,43.5
2023-05-05T22:59:53.951Z,43.5
2023-05-05T23:10:00.173Z,43.5
2023-05-05T23:20:05.102Z,43.5
2023-05-05T23:30:11.277Z,43.5
2023-05-05T23:40:17.217Z,43.5
2023-05-05T23:50:23.266Z,43.5
